createdAt,value
2023-03-07T00:00:45.428Z,35.30
2023-03-07T00:03:20.827Z,35.40
2023-03-07T00:05:49.988Z,35.20
2023-03-07T00:08:18.794Z,34.70
2023-03-07T00:10:49.216Z,34.70
2023-03-07T00:13:17.985Z,34.50
2023-03-07T00:15:47.131Z,34.30
2023-03-07T00:18:15.933Z,34.30
2023-03-07T00:20:45.810Z,34.40
2023-03-07T00:23:14.579Z,34.50
2023-03-07T00:25:43.624Z,34.50
2023-03-07T00:28:13.734Z,34.40
2023-03-07T00:30:42.886Z,34.30
2023-03-07T00:33:11.670Z,34.40
2023-03-07T00:35:40.732Z,34.10
2023-03-07T00:38:09.779Z,34.10
2023-03-07T00:40:38.836Z,34.10
2023-03-07T00:43:08.255Z,34.10
2023-03-07T00:45:38.805Z,33.90
2023-03-07T00:48:08.022Z,34.10
2023-03-07T00:50:37.163Z,34.00
2023-03-07T00:53:06.049Z,34.00
2023-03-07T00:55:35.198Z,34.10
2023-03-07T00:58:04.154Z,34.00
2023-03-07T01:00:33.598Z,34.10
2023-03-07T01:03:04.274Z,34.30
2023-03-07T01:05:33.397Z,34.20
2023-03-07T01:08:02.216Z,34.40
2023-03-07T01:10:33.321Z,34.40
2023-03-07T01:13:02.270Z,34.60
2023-03-07T01:15:32.046Z,34.50
2023-03-07T01:18:01.418Z,34.60
2023-03-07T01:20:34.823Z,34.50
2023-03-07T01:23:03.706Z,34.30
2023-03-07T01:25:39.130Z,34.50
2023-03-07T01:28:09.264Z,34.60
2023-03-07T01:30:38.413Z,34.30
2023-03-07T01:33:07.612Z,34.10
2023-03-07T01:35:41.386Z,33.90
2023-03-07T01:38:11.310Z,33.80
2023-03-07T01:40:41.025Z,33.90
2023-03-07T01:43:29.035Z,34.10
2023-03-07T01:46:42.992Z,34.00
2023-03-07T01:49:19.675Z,34.00
2023-03-07T01:51:58.920Z,33.90
2023-03-07T01:54:30.330Z,33.80
2023-03-07T01:57:02.132Z,33.90
2023-03-07T01:59:35.468Z,33.80
2023-03-07T02:02:12.412Z,33.70
2023-03-07T02:04:49.427Z,33.80
2023-03-07T02:07:26.142Z,33.80
2023-03-07T02:09:57.875Z,33.70
2023-03-07T02:12:27.290Z,33.60
2023-03-07T02:14:56.870Z,33.60
2023-03-07T02:17:27.961Z,33.70
2023-03-07T02:20:18.232Z,33.80
2023-03-07T02:22:50.887Z,33.70
2023-03-07T02:25:29.784Z,33.80
2023-03-07T02:28:04.455Z,33.70
2023-03-07T02:30:34.724Z,33.70
2023-03-07T02:33:03.964Z,33.70
2023-03-07T02:35:32.842Z,33.80
2023-03-07T02:38:07.609Z,33.60
2023-03-07T02:40:36.731Z,33.80
2023-03-07T02:43:09.723Z,33.80
2023-03-07T02:45:41.181Z,34.00
2023-03-07T02:48:10.880Z,34.30
2023-03-07T02:50:40.017Z,34.50
2023-03-07T02:53:09.082Z,34.80
2023-03-07T02:55:37.866Z,34.90
2023-03-07T02:58:09.591Z,35.00
2023-03-07T03:00:38.441Z,35.10
2023-03-07T03:03:07.732Z,35.10
2023-03-07T03:05:36.557Z,35.10
2023-03-07T03:08:06.149Z,35.20
2023-03-07T03:10:35.036Z,35.20
2023-03-07T03:13:04.264Z,35.20
2023-03-07T03:15:34.485Z,35.10
2023-03-07T03:18:03.932Z,35.20
2023-03-07T03:20:32.833Z,35.10
2023-03-07T03:23:01.865Z,35.20
2023-03-07T03:25:30.664Z,35.50
2023-03-07T03:27:59.961Z,35.20
2023-03-07T03:30:32.479Z,35.10
2023-03-07T03:33:05.151Z,35.20
2023-03-07T03:35:35.176Z,35.00
2023-03-07T03:38:04.451Z,35.20
2023-03-07T03:40:33.258Z,35.10
2023-03-07T03:43:02.343Z,35.00
2023-03-07T03:45:31.151Z,35.00
2023-03-07T03:48:00.263Z,34.90
2023-03-07T03:50:30.596Z,35.00
2023-03-07T03:53:01.046Z,34.90
2023-03-07T03:55:29.991Z,34.90
2023-03-07T03:58:00.429Z,34.70
2023-03-07T04:00:29.478Z,34.80
2023-03-07T04:02:58.948Z,34.90
2023-03-07T04:05:29.148Z,35.20
2023-03-07T04:07:58.199Z,35.20
2023-03-07T04:10:27.256Z,35.10
2023-03-07T04:12:56.342Z,35.00
2023-03-07T04:15:25.178Z,34.90
2023-03-07T04:17:54.279Z,35.10
2023-03-07T04:20:23.018Z,35.80
2023-03-07T04:22:53.538Z,35.20
2023-03-07T04:25:22.380Z,35.10
2023-03-07T04:27:51.424Z,35.20
2023-03-07T04:30:20.299Z,35.10
2023-03-07T04:32:49.398Z,35.20
2023-03-07T04:35:18.442Z,35.10
2023-03-07T04:37:47.596Z,35.00
2023-03-07T04:40:18.236Z,35.10
2023-03-07T04:42:47.496Z,35.20
2023-03-07T04:45:16.486Z,35.00
2023-03-07T04:47:45.877Z,34.80
2023-03-07T04:50:14.740Z,34.80
2023-03-07T04:52:47.070Z,34.80
2023-03-07T04:55:19.004Z,34.80
2023-03-07T04:57:48.422Z,35.00
2023-03-07T05:00:18.676Z,34.90
2023-03-07T05:02:48.882Z,34.90
2023-03-07T05:05:19.897Z,34.90
2023-03-07T05:07:49.114Z,34.90
2023-03-07T05:10:19.751Z,35.00
2023-03-07T05:12:49.003Z,35.00
2023-03-07T05:15:18.493Z,35.00
2023-03-07T05:17:47.747Z,35.20
2023-03-07T05:20:16.591Z,35.50
2023-03-07T05:22:45.684Z,35.30
2023-03-07T05:25:15.222Z,35.00
2023-03-07T05:27:47.098Z,35.00
2023-03-07T05:30:17.512Z,35.20
2023-03-07T05:32:46.738Z,35.00
2023-03-07T05:35:17.251Z,35.00
2023-03-07T05:37:47.877Z,35.30
2023-03-07T05:40:16.905Z,35.50
2023-03-07T05:42:49.822Z,35.40
2023-03-07T05:45:21.252Z,35.30
2023-03-07T05:47:51.858Z,35.90
2023-03-07T05:50:21.108Z,35.30
2023-03-07T05:52:53.099Z,35.10
2023-03-07T05:55:22.561Z,35.20
2023-03-07T05:57:53.154Z,34.90
2023-03-07T06:00:23.724Z,34.90
2023-03-07T06:02:58.370Z,34.90
2023-03-07T06:05:27.362Z,34.90
2023-03-07T06:07:56.709Z,35.10
2023-03-07T06:10:25.855Z,35.00
2023-03-07T06:12:56.762Z,35.00
2023-03-07T06:15:25.595Z,35.20
2023-03-07T06:18:01.266Z,35.30
2023-03-07T06:20:30.130Z,35.30
2023-03-07T06:22:59.203Z,35.10
2023-03-07T06:25:28.191Z,35.30
2023-03-07T06:28:01.084Z,35.30
2023-03-07T06:30:32.126Z,35.30
2023-03-07T06:33:01.806Z,35.10
2023-03-07T06:35:30.700Z,35.10
2023-03-07T06:37:59.893Z,35.20
2023-03-07T06:40:28.808Z,35.30
2023-03-07T06:43:00.008Z,35.20
2023-03-07T06:45:29.033Z,35.20
2023-03-07T06:47:58.825Z,35.10
2023-03-07T06:50:35.099Z,34.80
2023-03-07T06:53:05.996Z,35.00
2023-03-07T06:55:34.825Z,35.10
2023-03-07T06:58:05.931Z,35.00
2023-03-07T07:00:34.967Z,35.00
2023-03-07T07:03:04.272Z,35.10
2023-03-07T07:05:33.217Z,35.00
2023-03-07T07:08:02.321Z,35.10
2023-03-07T07:10:31.242Z,35.10
2023-03-07T07:13:01.102Z,35.30
2023-03-07T07:15:32.493Z,35.40
2023-03-07T07:18:03.012Z,35.30
2023-03-07T07:20:33.680Z,35.40
2023-03-07T07:23:04.201Z,35.10
2023-03-07T07:25:33.013Z,35.10
2023-03-07T07:28:02.191Z,35.20
2023-03-07T07:30:32.575Z,35.10
2023-03-07T07:33:01.941Z,34.90
2023-03-07T07:35:30.945Z,34.90
2023-03-07T07:38:00.880Z,35.30
2023-03-07T07:40:29.671Z,35.00
2023-03-07T07:42:58.928Z,34.80
2023-03-07T07:45:49.424Z,35.10
2023-03-07T07:48:22.382Z,35.20
2023-03-07T07:50:51.427Z,35.20
2023-03-07T07:53:22.263Z,35.30
2023-03-07T07:55:51.767Z,35.20
2023-03-07T07:58:21.103Z,35.10
2023-03-07T08:00:52.723Z,34.90
2023-03-07T08:03:21.875Z,34.70
2023-03-07T08:05:51.945Z,35.00
2023-03-07T08:08:21.486Z,35.00
2023-03-07T08:10:50.595Z,34.50
2023-03-07T08:13:20.821Z,34.80
2023-03-07T08:15:51.062Z,34.60
2023-03-07T08:18:20.157Z,34.20
2023-03-07T08:20:48.978Z,34.30
2023-03-07T08:23:18.176Z,34.30
2023-03-07T08:25:46.998Z,34.20
2023-03-07T08:28:16.089Z,34.50
2023-03-07T08:30:45.049Z,34.60
2023-03-07T08:33:15.452Z,34.50
2023-03-07T08:35:44.255Z,34.70
2023-03-07T08:38:13.370Z,35.20
2023-03-07T08:40:42.260Z,34.60
2023-03-07T08:43:11.476Z,34.70
2023-03-07T08:45:42.110Z,34.30
2023-03-07T08:48:11.564Z,34.60
2023-03-07T08:50:41.726Z,34.90
2023-03-07T08:53:10.762Z,35.20
2023-03-07T08:55:39.579Z,35.80
2023-03-07T08:58:08.826Z,36.10
2023-03-07T09:00:39.825Z,36.30
2023-03-07T09:03:09.010Z,35.90
2023-03-07T09:05:39.795Z,35.90
2023-03-07T09:08:10.244Z,36.00
2023-03-07T09:10:39.526Z,36.00
2023-03-07T09:13:08.632Z,36.30
2023-03-07T09:15:40.112Z,36.90
2023-03-07T09:18:10.307Z,36.90
2023-03-07T09:20:40.305Z,36.70
2023-03-07T09:23:11.238Z,36.20
2023-03-07T09:25:41.404Z,36.10
2023-03-07T09:28:10.538Z,35.90
2023-03-07T09:30:39.649Z,36.00
2023-03-07T09:33:08.786Z,36.20
2023-03-07T09:35:39.721Z,36.30
2023-03-07T09:38:10.715Z,36.50
2023-03-07T09:40:40.392Z,36.50
2023-03-07T09:43:20.018Z,36.30
2023-03-07T09:46:15.283Z,36.10
2023-03-07T09:49:30.189Z,36.30
2023-03-07T09:52:01.756Z,36.60
2023-03-07T09:54:42.647Z,36.50
2023-03-07T09:57:22.160Z,36.00
2023-03-07T09:59:56.472Z,36.60
2023-03-07T10:02:34.161Z,36.60
2023-03-07T10:05:12.954Z,36.80
2023-03-07T10:07:42.048Z,36.00
2023-03-07T10:10:23.489Z,35.70
2023-03-07T10:13:15.577Z,36.10
2023-03-07T10:15:48.856Z,35.90
2023-03-07T10:18:37.001Z,37.10
2023-03-07T10:21:22.638Z,37.60
2023-03-07T10:24:29.433Z,37.50
2023-03-07T10:27:05.561Z,37.00
2023-03-07T10:29:45.942Z,37.00
2023-03-07T10:32:25.289Z,37.10
2023-03-07T10:35:01.537Z,37.00
2023-03-07T10:37:46.618Z,37.60
2023-03-07T10:40:24.657Z,37.90
2023-03-07T10:42:56.440Z,37.80
2023-03-07T10:45:33.449Z,37.60
2023-03-07T10:48:09.965Z,38.20
2023-03-07T10:50:50.534Z,38.60
2023-03-07T10:53:27.401Z,37.90
2023-03-07T10:56:13.395Z,37.90
2023-03-07T10:59:02.791Z,37.80
2023-03-07T11:01:33.577Z,38.10
2023-03-07T11:04:06.085Z,38.80
2023-03-07T11:06:40.363Z,37.70
2023-03-07T11:09:19.523Z,37.50
2023-03-07T11:11:53.891Z,38.00
2023-03-07T11:14:25.596Z,37.80
2023-03-07T11:16:59.242Z,37.70
2023-03-07T11:19:39.579Z,37.70
2023-03-07T11:22:25.912Z,37.60
2023-03-07T11:25:02.471Z,38.20
2023-03-07T11:27:40.541Z,37.50
2023-03-07T11:30:25.208Z,36.70
2023-03-07T11:33:14.762Z,36.10
2023-03-07T11:36:01.303Z,36.10
2023-03-07T11:38:49.719Z,35.80
2023-03-07T11:41:27.526Z,35.80
2023-03-07T11:44:19.239Z,34.50
2023-03-07T11:47:14.022Z,34.90
2023-03-07T11:49:57.720Z,34.20
2023-03-07T11:53:04.948Z,33.60
2023-03-07T11:55:39.590Z,33.50
2023-03-07T11:58:53.173Z,33.20
2023-03-07T12:01:32.019Z,33.50
2023-03-07T12:04:41.399Z,33.50
2023-03-07T12:07:32.420Z,33.30
2023-03-07T12:10:13.944Z,33.20
2023-03-07T12:13:00.465Z,34.40
2023-03-07T12:15:40.564Z,33.40
2023-03-07T12:18:41.248Z,33.70
2023-03-07T12:21:33.782Z,32.90
2023-03-07T12:24:12.566Z,33.40
2023-03-07T12:26:54.738Z,32.40
2023-03-07T12:29:36.942Z,33.20
2023-03-07T12:32:13.329Z,33.10
2023-03-07T12:34:51.355Z,33.30
2023-03-07T12:37:29.157Z,33.40
2023-03-07T12:40:04.461Z,33.20
2023-03-07T12:42:45.203Z,33.20
2023-03-07T12:45:21.030Z,34.00
2023-03-07T12:48:04.628Z,34.30
2023-03-07T12:50:47.030Z,34.70
2023-03-07T12:53:28.178Z,34.30
2023-03-07T12:56:04.884Z,34.10
2023-03-07T12:58:43.510Z,33.70
2023-03-07T13:01:19.549Z,33.90
2023-03-07T13:03:59.432Z,34.00
2023-03-07T13:06:29.661Z,34.50
2023-03-07T13:09:04.223Z,33.70
2023-03-07T13:11:36.848Z,33.40
2023-03-07T13:14:06.804Z,33.90
2023-03-07T13:16:42.108Z,33.60
2023-03-07T13:19:54.551Z,34.10
2023-03-07T13:23:01.344Z,33.60
2023-03-07T13:26:03.829Z,34.00
2023-03-07T13:28:52.064Z,33.90
2023-03-07T13:31:43.824Z,33.60
2023-03-07T13:34:51.307Z,33.90
2023-03-07T13:37:58.047Z,33.40
2023-03-07T13:40:55.854Z,33.50
2023-03-07T13:44:05.270Z,33.80
2023-03-07T13:46:58.831Z,33.90
2023-03-07T13:49:51.808Z,33.50
2023-03-07T13:52:45.850Z,33.00
2023-03-07T13:55:28.209Z,33.80
2023-03-07T13:58:07.158Z,33.80
2023-03-07T14:00:50.222Z,33.40
2023-03-07T14:03:29.929Z,33.70
2023-03-07T14:06:04.611Z,34.00
2023-03-07T14:08:36.737Z,33.50
2023-03-07T14:11:08.009Z,33.90
2023-03-07T14:14:15.819Z,33.50
2023-03-07T14:17:23.446Z,33.70
2023-03-07T14:20:09.218Z,33.10
2023-03-07T14:22:59.684Z,33.70
2023-03-07T14:25:32.951Z,33.90
2023-03-07T14:28:06.335Z,33.60
2023-03-07T14:30:35.755Z,33.30
2023-03-07T14:33:05.944Z,33.30
2023-03-07T14:35:42.499Z,32.90
2023-03-07T14:38:22.214Z,32.80
2023-03-07T14:41:12.607Z,32.60
2023-03-07T14:43:58.068Z,32.40
2023-03-07T14:46:42.530Z,32.20
2023-03-07T14:49:32.239Z,32.40
2023-03-07T14:52:04.288Z,32.20
2023-03-07T14:54:38.482Z,32.10
2023-03-07T14:57:22.457Z,31.90
2023-03-07T15:00:26.076Z,31.80
2023-03-07T15:02:59.862Z,32.20
2023-03-07T15:05:33.311Z,32.10
2023-03-07T15:08:02.886Z,32.00
2023-03-07T15:10:40.750Z,31.90
2023-03-07T15:13:21.590Z,31.70
2023-03-07T15:15:56.050Z,31.50
2023-03-07T15:18:30.376Z,31.60
2023-03-07T15:21:03.611Z,31.40
2023-03-07T15:23:33.055Z,31.80
2023-03-07T15:26:05.326Z,31.60
2023-03-07T15:28:37.838Z,31.70
2023-03-07T15:31:08.732Z,31.60
2023-03-07T15:33:38.158Z,31.20
2023-03-07T15:36:27.104Z,31.30
2023-03-07T15:39:34.766Z,32.10
2023-03-07T15:42:07.517Z,31.90
2023-03-07T15:44:38.044Z,31.70
2023-03-07T15:47:17.962Z,31.90
2023-03-07T15:49:51.147Z,31.90
2023-03-07T15:52:31.453Z,31.30
2023-03-07T15:55:05.292Z,31.80
2023-03-07T15:57:39.437Z,31.80
2023-03-07T16:00:19.249Z,31.60
2023-03-07T16:02:50.217Z,31.80
2023-03-07T16:05:33.912Z,31.60
2023-03-07T16:08:04.197Z,31.40
2023-03-07T16:10:33.906Z,31.70
2023-03-07T16:13:03.238Z,31.40
2023-03-07T16:15:32.500Z,31.30
2023-03-07T16:18:01.924Z,31.10
2023-03-07T16:20:31.056Z,31.70
2023-03-07T16:23:00.270Z,31.60
2023-03-07T16:25:32.997Z,31.90
2023-03-07T16:28:02.216Z,31.90
2023-03-07T16:30:34.341Z,31.80
2023-03-07T16:33:03.256Z,31.50
2023-03-07T16:35:32.416Z,31.80
2023-03-07T16:38:01.694Z,31.80
2023-03-07T16:40:33.382Z,31.70
2023-03-07T16:43:03.192Z,31.70
2023-03-07T16:45:33.957Z,32.10
2023-03-07T16:48:03.460Z,31.90
2023-03-07T16:50:34.505Z,32.20
2023-03-07T16:53:03.599Z,32.10
2023-03-07T16:55:34.334Z,31.90
2023-03-07T16:58:08.444Z,32.10
2023-03-07T17:00:37.896Z,32.00
2023-03-07T17:03:06.791Z,31.90
2023-03-07T17:05:35.959Z,32.00
2023-03-07T17:08:04.857Z,32.00
2023-03-07T17:10:37.395Z,31.90
2023-03-07T17:13:12.268Z,32.10
2023-03-07T17:15:41.861Z,32.20
2023-03-07T17:18:13.301Z,32.10
2023-03-07T17:20:42.620Z,32.30
2023-03-07T17:23:11.392Z,32.00
2023-03-07T17:25:41.903Z,32.10
2023-03-07T17:28:18.627Z,32.10
2023-03-07T17:30:50.098Z,32.20
2023-03-07T17:33:19.732Z,32.20
2023-03-07T17:35:48.834Z,32.20
2023-03-07T17:38:17.670Z,32.20
2023-03-07T17:40:54.926Z,32.10
2023-03-07T17:43:24.167Z,32.30
2023-03-07T17:45:53.330Z,32.30
2023-03-07T17:48:22.236Z,32.30
2023-03-07T17:50:51.460Z,32.30
2023-03-07T17:53:20.443Z,32.30
2023-03-07T17:55:50.899Z,32.30
2023-03-07T17:58:19.837Z,32.40
2023-03-07T18:00:48.979Z,32.30
2023-03-07T18:03:17.792Z,32.40
2023-03-07T18:05:46.934Z,32.50
2023-03-07T18:08:15.757Z,32.60
2023-03-07T18:10:44.887Z,32.20
2023-03-07T18:13:15.239Z,32.20
2023-03-07T18:15:47.076Z,32.50
2023-03-07T18:18:16.343Z,32.50
2023-03-07T18:20:46.104Z,32.60
2023-03-07T18:23:14.949Z,32.50
2023-03-07T18:25:44.046Z,32.50
2023-03-07T18:28:14.220Z,32.50
2023-03-07T18:30:43.428Z,32.50
2023-03-07T18:33:12.249Z,32.70
2023-03-07T18:35:41.646Z,32.70
2023-03-07T18:38:10.476Z,32.50
2023-03-07T18:40:39.547Z,32.70
2023-03-07T18:43:08.420Z,32.50
2023-03-07T18:45:43.708Z,32.50
2023-03-07T18:48:12.963Z,32.60
2023-03-07T18:50:42.142Z,32.70
2023-03-07T18:53:10.969Z,32.90
2023-03-07T18:55:40.097Z,32.90
2023-03-07T18:58:08.902Z,33.70
2023-03-07T19:00:39.418Z,32.90
2023-03-07T19:03:08.298Z,32.90
2023-03-07T19:05:44.149Z,32.90
2023-03-07T19:08:13.214Z,33.10
2023-03-07T19:10:43.723Z,33.20
2023-03-07T19:13:12.701Z,33.20
2023-03-07T19:15:45.002Z,33.00
2023-03-07T19:18:13.939Z,33.30
2023-03-07T19:20:43.213Z,33.40
2023-03-07T19:23:12.375Z,33.50
2023-03-07T19:25:41.870Z,33.50
2023-03-07T19:28:10.783Z,33.90
2023-03-07T19:30:40.079Z,34.00
2023-03-07T19:33:10.468Z,34.30
2023-03-07T19:35:39.868Z,34.30
2023-03-07T19:38:08.820Z,34.30
2023-03-07T19:40:37.903Z,34.50
2023-03-07T19:43:06.754Z,34.60
2023-03-07T19:45:40.647Z,34.70
2023-03-07T19:48:10.900Z,34.80
2023-03-07T19:50:42.285Z,34.80
2023-03-07T19:53:11.228Z,35.10
2023-03-07T19:55:40.409Z,35.00
2023-03-07T19:58:09.322Z,35.20
2023-03-07T20:00:40.224Z,35.30
2023-03-07T20:03:13.460Z,35.20
2023-03-07T20:05:43.368Z,35.20
2023-03-07T20:08:12.694Z,35.10
2023-03-07T20:10:42.522Z,35.10
2023-03-07T20:13:13.578Z,35.00
2023-03-07T20:15:51.691Z,35.00
2023-03-07T20:18:21.944Z,34.90
2023-03-07T20:20:51.088Z,34.90
2023-03-07T20:23:20.138Z,34.90
2023-03-07T20:25:49.311Z,35.10
2023-03-07T20:28:18.168Z,35.20
2023-03-07T20:30:47.270Z,35.30
2023-03-07T20:33:16.042Z,35.20
2023-03-07T20:35:46.500Z,35.40
2023-03-07T20:38:15.341Z,35.30
2023-03-07T20:40:44.406Z,35.40
2023-03-07T20:43:13.307Z,35.40
2023-03-07T20:45:42.340Z,35.40
2023-03-07T20:48:11.236Z,35.40
2023-03-07T20:50:40.256Z,35.50
2023-03-07T20:53:10.440Z,35.40
2023-03-07T20:55:39.709Z,35.50
2023-03-07T20:58:08.860Z,35.80
2023-03-07T21:00:37.952Z,36.10
2023-03-07T21:03:09.970Z,36.00
2023-03-07T21:05:39.073Z,36.30
2023-03-07T21:08:10.000Z,36.30
2023-03-07T21:10:39.081Z,36.40
2023-03-07T21:13:07.956Z,36.50
2023-03-07T21:15:37.075Z,36.50
2023-03-07T21:18:06.028Z,36.90
2023-03-07T21:20:36.788Z,36.90
2023-03-07T21:23:05.651Z,36.90
2023-03-07T21:25:36.085Z,37.00
2023-03-07T21:28:05.077Z,37.00
2023-03-07T21:30:34.689Z,37.00
2023-03-07T21:33:03.625Z,36.80
2023-03-07T21:35:37.896Z,36.80
2023-03-07T21:38:07.496Z,37.10
2023-03-07T21:40:37.957Z,37.00
2023-03-07T21:43:06.731Z,37.20
2023-03-07T21:45:35.957Z,37.10
2023-03-07T21:48:04.937Z,37.00
2023-03-07T21:50:34.462Z,37.00
2023-03-07T21:53:03.282Z,36.90
2023-03-07T21:55:32.465Z,36.90
2023-03-07T21:58:02.875Z,36.80
2023-03-07T22:00:32.171Z,37.00
2023-03-07T22:03:01.100Z,36.90
2023-03-07T22:05:30.223Z,37.60
2023-03-07T22:07:58.996Z,37.10
2023-03-07T22:10:28.176Z,37.10
2023-03-07T22:12:56.972Z,37.30
2023-03-07T22:15:27.618Z,37.60
2023-03-07T22:17:56.719Z,37.90
2023-03-07T22:20:25.849Z,38.10
2023-03-07T22:22:55.395Z,38.00
2023-03-07T22:25:24.622Z,38.00
2023-03-07T22:27:53.490Z,37.90
2023-03-07T22:30:22.803Z,37.70
2023-03-07T22:32:52.969Z,37.50
2023-03-07T22:35:22.063Z,37.60
2023-03-07T22:37:50.890Z,37.60
2023-03-07T22:40:20.633Z,37.70
2023-03-07T22:42:51.415Z,37.60
2023-03-07T22:45:20.650Z,37.60
2023-03-07T22:47:49.394Z,37.40
2023-03-07T22:50:20.201Z,37.60
2023-03-07T22:52:49.090Z,37.60
2023-03-07T22:55:18.418Z,37.60
2023-03-07T22:57:47.166Z,37.40
2023-03-07T23:00:17.161Z,37.50
2023-03-07T23:02:46.027Z,37.20
2023-03-07T23:05:15.251Z,37.00
2023-03-07T23:07:47.218Z,36.80
2023-03-07T23:10:18.522Z,36.80
2023-03-07T23:12:51.149Z,37.00
2023-03-07T23:15:20.333Z,37.30
2023-03-07T23:17:49.465Z,37.40
2023-03-07T23:20:19.849Z,37.50
2023-03-07T23:22:50.078Z,37.70
2023-03-07T23:25:19.449Z,37.80
2023-03-07T23:27:48.572Z,37.60
2023-03-07T23:30:19.142Z,37.80
2023-03-07T23:32:48.233Z,37.80
2023-03-07T23:35:17.495Z,37.80
2023-03-07T23:37:49.945Z,37.80
2023-03-07T23:40:19.556Z,37.70
2023-03-07T23:42:48.323Z,37.60
2023-03-07T23:45:17.894Z,37.60
2023-03-07T23:47:46.655Z,37.50
2023-03-07T23:50:16.391Z,37.50
2023-03-07T23:52:45.304Z,37.50
2023-03-07T23:55:16.733Z,37.50
2023-03-07T23:57:47.821Z,37.60
